sensor_id;sensor_type;location;lat;lon;timestamp;P1;durP1;ratioP1;P2;durP2;ratioP2
32186;SDS011;18686;53.084;8.872;2023-06-24T00:00:36;8.02;;;6.35;;
32186;SDS011;18686;53.084;8.872;2023-06-24T00:03:05;9.25;;;6.70;;
32186;SDS011;18686;53.084;8.872;2023-06-24T00:05:34;9.15;;;5.82;;
32186;SDS011;18686;53.084;8.872;2023-06-24T00:08:06;7.50;;;6.47;;
32186;SDS011;18686;53.084;8.872;2023-06-24T00:10:34;7.65;;;6.25;;
32186;SDS011;18686;53.084;8.872;2023-06-24T00:13:03;13.38;;;8.00;;
32186;SDS011;18686;53.084;8.872;2023-06-24T00:15:31;7.95;;;7.07;;
32186;SDS011;18686;53.084;8.872;2023-06-24T00:18:02;9.00;;;7.43;;
32186;SDS011;18686;53.084;8.872;2023-06-24T00:20:33;9.35;;;7.25;;
32186;SDS011;18686;53.084;8.872;2023-06-24T00:23:02;9.55;;;7.63;;
32186;SDS011;18686;53.084;8.872;2023-06-24T00:25:30;11.65;;;8.45;;
32186;SDS011;18686;53.084;8.872;2023-06-24T00:27:59;8.93;;;7.72;;
32186;SDS011;18686;53.084;8.872;2023-06-24T00:30:27;10.48;;;7.28;;
32186;SDS011;18686;53.084;8.872;2023-06-24T00:32:55;10.80;;;7.13;;
32186;SDS011;18686;53.084;8.872;2023-06-24T00:35:25;8.75;;;7.57;;
32186;SDS011;18686;53.084;8.872;2023-06-24T00:37:53;10.25;;;7.82;;
32186;SDS011;18686;53.084;8.872;2023-06-24T00:40:24;9.57;;;8.10;;
32186;SDS011;18686;53.084;8.872;2023-06-24T00:42:52;11.60;;;8.68;;
32186;SDS011;18686;53.084;8.872;2023-06-24T00:45:21;12.45;;;7.75;;
32186;SDS011;18686;53.084;8.872;2023-06-24T00:47:50;8.57;;;7.60;;
32186;SDS011;18686;53.084;8.872;2023-06-24T00:50:18;8.57;;;7.68;;
32186;SDS011;18686;53.084;8.872;2023-06-24T00:52:48;9.93;;;8.30;;
32186;SDS011;18686;53.084;8.872;2023-06-24T00:55:16;10.00;;;8.38;;
32186;SDS011;18686;53.084;8.872;2023-06-24T00:57:47;8.73;;;7.93;;
32186;SDS011;18686;53.084;8.872;2023-06-24T01:00:18;12.95;;;7.70;;
32186;SDS011;18686;53.084;8.872;2023-06-24T01:02:48;8.43;;;7.63;;
32186;SDS011;18686;53.084;8.872;2023-06-24T01:05:18;10.77;;;7.85;;
32186;SDS011;18686;53.084;8.872;2023-06-24T01:07:51;8.57;;;7.78;;
32186;SDS011;18686;53.084;8.872;2023-06-24T01:10:23;8.80;;;7.90;;
32186;SDS011;18686;53.084;8.872;2023-06-24T01:12:53;8.95;;;8.07;;
32186;SDS011;18686;53.084;8.872;2023-06-24T01:15:22;9.18;;;8.18;;
32186;SDS011;18686;53.084;8.872;2023-06-24T01:17:56;9.40;;;8.27;;
32186;SDS011;18686;53.084;8.872;2023-06-24T01:20:29;10.10;;;8.27;;
32186;SDS011;18686;53.084;8.872;2023-06-24T01:26:24;11.65;;;9.23;;
32186;SDS011;18686;53.084;8.872;2023-06-24T01:29:30;9.40;;;8.23;;
32186;SDS011;18686;53.084;8.872;2023-06-24T01:32:14;9.48;;;8.30;;
32186;SDS011;18686;53.084;8.872;2023-06-24T01:37:19;11.20;;;9.13;;
32186;SDS011;18686;53.084;8.872;2023-06-24T01:39:52;9.68;;;8.63;;
32186;SDS011;18686;53.084;8.872;2023-06-24T01:42:33;12.93;;;9.45;;
32186;SDS011;18686;53.084;8.872;2023-06-24T01:45:06;9.30;;;8.35;;
32186;SDS011;18686;53.084;8.872;2023-06-24T01:47:39;9.73;;;8.52;;
32186;SDS011;18686;53.084;8.872;2023-06-24T01:50:11;11.38;;;9.70;;
32186;SDS011;18686;53.084;8.872;2023-06-24T01:52:41;11.38;;;9.65;;
32186;SDS011;18686;53.084;8.872;2023-06-24T01:55:14;10.88;;;9.68;;
32186;SDS011;18686;53.084;8.872;2023-06-24T01:57:47;10.95;;;9.40;;
32186;SDS011;18686;53.084;8.872;2023-06-24T02:00:18;11.18;;;9.07;;
32186;SDS011;18686;53.084;8.872;2023-06-24T02:02:51;11.20;;;9.20;;
32186;SDS011;18686;53.084;8.872;2023-06-24T02:05:21;14.07;;;9.80;;
32186;SDS011;18686;53.084;8.872;2023-06-24T02:07:52;12.02;;;10.30;;
32186;SDS011;18686;53.084;8.872;2023-06-24T02:10:21;10.57;;;9.45;;
32186;SDS011;18686;53.084;8.872;2023-06-24T02:12:51;10.93;;;9.40;;
32186;SDS011;18686;53.084;8.872;2023-06-24T02:15:21;13.50;;;12.05;;
32186;SDS011;18686;53.084;8.872;2023-06-24T02:17:52;14.45;;;11.77;;
32186;SDS011;18686;53.084;8.872;2023-06-24T02:20:23;15.93;;;12.88;;
32186;SDS011;18686;53.084;8.872;2023-06-24T02:22:54;15.23;;;11.57;;
32186;SDS011;18686;53.084;8.872;2023-06-24T02:25:24;16.67;;;12.10;;
32186;SDS011;18686;53.084;8.872;2023-06-24T02:27:55;14.38;;;11.48;;
32186;SDS011;18686;53.084;8.872;2023-06-24T02:30:24;16.13;;;14.25;;
32186;SDS011;18686;53.084;8.872;2023-06-24T02:32:54;17.38;;;13.90;;
32186;SDS011;18686;53.084;8.872;2023-06-24T02:35:23;13.68;;;12.25;;
32186;SDS011;18686;53.084;8.872;2023-06-24T02:37:52;12.27;;;11.07;;
32186;SDS011;18686;53.084;8.872;2023-06-24T02:40:21;16.02;;;12.43;;
32186;SDS011;18686;53.084;8.872;2023-06-24T02:42:49;12.50;;;10.82;;
32186;SDS011;18686;53.084;8.872;2023-06-24T02:45:17;12.25;;;10.95;;
32186;SDS011;18686;53.084;8.872;2023-06-24T02:47:46;15.02;;;11.60;;
32186;SDS011;18686;53.084;8.872;2023-06-24T02:50:17;17.55;;;14.20;;
32186;SDS011;18686;53.084;8.872;2023-06-24T02:52:47;15.13;;;13.52;;
32186;SDS011;18686;53.084;8.872;2023-06-24T02:55:18;17.25;;;15.27;;
32186;SDS011;18686;53.084;8.872;2023-06-24T03:00:40;19.10;;;17.08;;
32186;SDS011;18686;53.084;8.872;2023-06-24T03:03:25;15.93;;;14.25;;
32186;SDS011;18686;53.084;8.872;2023-06-24T03:05:57;14.70;;;13.07;;
32186;SDS011;18686;53.084;8.872;2023-06-24T03:08:28;24.90;;;19.70;;
32186;SDS011;18686;53.084;8.872;2023-06-24T03:10:57;26.40;;;22.08;;
32186;SDS011;18686;53.084;8.872;2023-06-24T03:13:29;23.88;;;21.33;;
32186;SDS011;18686;53.084;8.872;2023-06-24T03:16:09;20.73;;;17.70;;
32186;SDS011;18686;53.084;8.872;2023-06-24T03:18:49;22.70;;;17.50;;
32186;SDS011;18686;53.084;8.872;2023-06-24T03:21:20;23.05;;;16.90;;
32186;SDS011;18686;53.084;8.872;2023-06-24T03:24:04;17.00;;;15.20;;
32186;SDS011;18686;53.084;8.872;2023-06-24T03:26:35;16.58;;;13.40;;
32186;SDS011;18686;53.084;8.872;2023-06-24T03:29:06;18.75;;;15.48;;
32186;SDS011;18686;53.084;8.872;2023-06-24T03:31:39;16.45;;;13.73;;
32186;SDS011;18686;53.084;8.872;2023-06-24T03:34:16;18.25;;;13.45;;
32186;SDS011;18686;53.084;8.872;2023-06-24T03:36:45;14.82;;;12.77;;
32186;SDS011;18686;53.084;8.872;2023-06-24T03:39:14;17.10;;;13.57;;
32186;SDS011;18686;53.084;8.872;2023-06-24T03:41:43;17.67;;;15.68;;
32186;SDS011;18686;53.084;8.872;2023-06-24T03:44:13;18.33;;;16.33;;
32186;SDS011;18686;53.084;8.872;2023-06-24T03:46:42;16.25;;;14.55;;
32186;SDS011;18686;53.084;8.872;2023-06-24T03:49:11;21.90;;;17.67;;
32186;SDS011;18686;53.084;8.872;2023-06-24T03:51:40;23.50;;;16.73;;
32186;SDS011;18686;53.084;8.872;2023-06-24T03:54:09;21.52;;;17.10;;
32186;SDS011;18686;53.084;8.872;2023-06-24T03:56:38;22.65;;;17.52;;
32186;SDS011;18686;53.084;8.872;2023-06-24T03:59:06;24.52;;;18.05;;
32186;SDS011;18686;53.084;8.872;2023-06-24T04:01:34;20.02;;;16.60;;
32186;SDS011;18686;53.084;8.872;2023-06-24T04:04:03;18.23;;;15.70;;
32186;SDS011;18686;53.084;8.872;2023-06-24T04:06:31;20.35;;;16.52;;
32186;SDS011;18686;53.084;8.872;2023-06-24T04:09:00;18.98;;;16.50;;
32186;SDS011;18686;53.084;8.872;2023-06-24T04:11:30;22.00;;;17.60;;
32186;SDS011;18686;53.084;8.872;2023-06-24T04:13:59;22.30;;;17.60;;
32186;SDS011;18686;53.084;8.872;2023-06-24T04:16:28;21.33;;;17.73;;
32186;SDS011;18686;53.084;8.872;2023-06-24T04:18:56;18.17;;;16.25;;
32186;SDS011;18686;53.084;8.872;2023-06-24T04:21:25;20.88;;;16.13;;
32186;SDS011;18686;53.084;8.872;2023-06-24T04:23:53;25.30;;;16.67;;
32186;SDS011;18686;53.084;8.872;2023-06-24T04:26:21;19.48;;;16.48;;
32186;SDS011;18686;53.084;8.872;2023-06-24T04:28:51;21.00;;;16.02;;
32186;SDS011;18686;53.084;8.872;2023-06-24T04:31:19;21.08;;;15.85;;
32186;SDS011;18686;53.084;8.872;2023-06-24T04:33:48;15.30;;;13.80;;
32186;SDS011;18686;53.084;8.872;2023-06-24T04:36:16;16.73;;;14.43;;
32186;SDS011;18686;53.084;8.872;2023-06-24T04:38:45;19.70;;;16.38;;
32186;SDS011;18686;53.084;8.872;2023-06-24T04:41:13;21.80;;;18.33;;
32186;SDS011;18686;53.084;8.872;2023-06-24T04:43:42;22.08;;;17.75;;
32186;SDS011;18686;53.084;8.872;2023-06-24T04:46:11;21.35;;;17.25;;
32186;SDS011;18686;53.084;8.872;2023-06-24T04:48:40;19.30;;;16.23;;
32186;SDS011;18686;53.084;8.872;2023-06-24T04:51:08;20.17;;;17.52;;
32186;SDS011;18686;53.084;8.872;2023-06-24T04:53:36;18.45;;;15.70;;
32186;SDS011;18686;53.084;8.872;2023-06-24T04:56:05;18.88;;;15.63;;
32186;SDS011;18686;53.084;8.872;2023-06-24T04:58:33;18.27;;;14.45;;
32186;SDS011;18686;53.084;8.872;2023-06-24T05:01:01;15.32;;;13.73;;
32186;SDS011;18686;53.084;8.872;2023-06-24T05:03:31;17.48;;;14.20;;
32186;SDS011;18686;53.084;8.872;2023-06-24T05:05:59;15.63;;;13.90;;
32186;SDS011;18686;53.084;8.872;2023-06-24T05:08:27;16.73;;;14.93;;
32186;SDS011;18686;53.084;8.872;2023-06-24T05:10:55;17.35;;;14.80;;
32186;SDS011;18686;53.084;8.872;2023-06-24T05:13:23;20.63;;;16.38;;
32186;SDS011;18686;53.084;8.872;2023-06-24T05:15:52;17.10;;;14.70;;
32186;SDS011;18686;53.084;8.872;2023-06-24T05:18:20;22.08;;;16.15;;
32186;SDS011;18686;53.084;8.872;2023-06-24T05:20:49;19.42;;;15.55;;
32186;SDS011;18686;53.084;8.872;2023-06-24T05:23:17;17.00;;;14.68;;
32186;SDS011;18686;53.084;8.872;2023-06-24T05:25:46;14.90;;;13.40;;
32186;SDS011;18686;53.084;8.872;2023-06-24T05:28:14;15.55;;;12.95;;
32186;SDS011;18686;53.084;8.872;2023-06-24T05:30:44;17.40;;;13.57;;
32186;SDS011;18686;53.084;8.872;2023-06-24T05:33:12;17.13;;;12.70;;
32186;SDS011;18686;53.084;8.872;2023-06-24T05:35:42;16.50;;;12.15;;
32186;SDS011;18686;53.084;8.872;2023-06-24T05:38:12;16.20;;;12.88;;
32186;SDS011;18686;53.084;8.872;2023-06-24T05:40:40;14.40;;;11.63;;
32186;SDS011;18686;53.084;8.872;2023-06-24T05:43:09;13.20;;;11.32;;
32186;SDS011;18686;53.084;8.872;2023-06-24T05:45:38;16.70;;;12.30;;
32186;SDS011;18686;53.084;8.872;2023-06-24T05:48:06;15.20;;;11.65;;
32186;SDS011;18686;53.084;8.872;2023-06-24T05:50:34;10.27;;;9.25;;
32186;SDS011;18686;53.084;8.872;2023-06-24T05:53:03;13.95;;;10.25;;
32186;SDS011;18686;53.084;8.872;2023-06-24T05:55:32;13.65;;;9.95;;
32186;SDS011;18686;53.084;8.872;2023-06-24T05:58:01;14.35;;;10.77;;
32186;SDS011;18686;53.084;8.872;2023-06-24T06:00:29;10.88;;;9.68;;
32186;SDS011;18686;53.084;8.872;2023-06-24T06:02:57;11.90;;;9.45;;
32186;SDS011;18686;53.084;8.872;2023-06-24T06:05:25;10.75;;;9.10;;
32186;SDS011;18686;53.084;8.872;2023-06-24T06:07:54;12.18;;;9.48;;
32186;SDS011;18686;53.084;8.872;2023-06-24T06:10:22;9.65;;;8.68;;
32186;SDS011;18686;53.084;8.872;2023-06-24T06:12:51;9.30;;;7.60;;
32186;SDS011;18686;53.084;8.872;2023-06-24T06:15:20;12.88;;;9.65;;
32186;SDS011;18686;53.084;8.872;2023-06-24T06:17:48;12.27;;;9.23;;
32186;SDS011;18686;53.084;8.872;2023-06-24T06:20:16;13.18;;;8.65;;
32186;SDS011;18686;53.084;8.872;2023-06-24T06:22:45;13.43;;;8.20;;
32186;SDS011;18686;53.084;8.872;2023-06-24T06:25:13;7.28;;;6.57;;
32186;SDS011;18686;53.084;8.872;2023-06-24T06:27:41;7.78;;;6.15;;
32186;SDS011;18686;53.084;8.872;2023-06-24T06:30:11;9.30;;;7.18;;
32186;SDS011;18686;53.084;8.872;2023-06-24T06:32:41;8.05;;;6.35;;
32186;SDS011;18686;53.084;8.872;2023-06-24T06:35:09;6.60;;;5.45;;
32186;SDS011;18686;53.084;8.872;2023-06-24T06:37:37;6.15;;;5.53;;
32186;SDS011;18686;53.084;8.872;2023-06-24T06:40:06;6.90;;;5.85;;
32186;SDS011;18686;53.084;8.872;2023-06-24T06:42:35;6.05;;;4.28;;
32186;SDS011;18686;53.084;8.872;2023-06-24T06:45:04;5.10;;;4.32;;
32186;SDS011;18686;53.084;8.872;2023-06-24T06:47:34;5.60;;;4.28;;
32186;SDS011;18686;53.084;8.872;2023-06-24T06:50:02;6.88;;;4.65;;
32186;SDS011;18686;53.084;8.872;2023-06-24T06:52:31;6.43;;;4.40;;
32186;SDS011;18686;53.084;8.872;2023-06-24T06:54:59;7.47;;;4.90;;
32186;SDS011;18686;53.084;8.872;2023-06-24T06:57:27;8.38;;;4.93;;
32186;SDS011;18686;53.084;8.872;2023-06-24T06:59:56;6.90;;;4.68;;
32186;SDS011;18686;53.084;8.872;2023-06-24T07:02:24;6.60;;;4.93;;
32186;SDS011;18686;53.084;8.872;2023-06-24T07:04:54;8.07;;;4.60;;
32186;SDS011;18686;53.084;8.872;2023-06-24T07:07:22;6.53;;;4.07;;
32186;SDS011;18686;53.084;8.872;2023-06-24T07:09:50;4.85;;;3.88;;
32186;SDS011;18686;53.084;8.872;2023-06-24T07:12:19;7.78;;;5.07;;
32186;SDS011;18686;53.084;8.872;2023-06-24T07:14:50;6.13;;;4.35;;
32186;SDS011;18686;53.084;8.872;2023-06-24T07:17:18;5.47;;;4.40;;
32186;SDS011;18686;53.084;8.872;2023-06-24T07:19:46;8.52;;;5.00;;
32186;SDS011;18686;53.084;8.872;2023-06-24T07:22:16;6.63;;;4.38;;
32186;SDS011;18686;53.084;8.872;2023-06-24T07:24:44;6.40;;;4.40;;
32186;SDS011;18686;53.084;8.872;2023-06-24T07:27:12;6.13;;;4.25;;
32186;SDS011;18686;53.084;8.872;2023-06-24T07:29:40;6.82;;;4.07;;
32186;SDS011;18686;53.084;8.872;2023-06-24T07:32:09;5.53;;;3.60;;
32186;SDS011;18686;53.084;8.872;2023-06-24T07:34:37;5.22;;;3.70;;
32186;SDS011;18686;53.084;8.872;2023-06-24T07:37:05;6.13;;;4.15;;
32186;SDS011;18686;53.084;8.872;2023-06-24T07:39:51;4.32;;;3.20;;
32186;SDS011;18686;53.084;8.872;2023-06-24T07:42:19;4.03;;;3.20;;
32186;SDS011;18686;53.084;8.872;2023-06-24T07:44:47;5.05;;;4.03;;
32186;SDS011;18686;53.084;8.872;2023-06-24T07:47:16;4.90;;;3.00;;
32186;SDS011;18686;53.084;8.872;2023-06-24T07:49:45;4.43;;;3.58;;
32186;SDS011;18686;53.084;8.872;2023-06-24T07:52:13;5.57;;;3.20;;
32186;SDS011;18686;53.084;8.872;2023-06-24T07:54:42;4.32;;;2.78;;
32186;SDS011;18686;53.084;8.872;2023-06-24T07:57:11;4.95;;;3.45;;
32186;SDS011;18686;53.084;8.872;2023-06-24T07:59:40;5.43;;;3.60;;
32186;SDS011;18686;53.084;8.872;2023-06-24T08:02:08;4.30;;;3.45;;
32186;SDS011;18686;53.084;8.872;2023-06-24T08:04:36;4.55;;;3.70;;
32186;SDS011;18686;53.084;8.872;2023-06-24T08:07:05;3.25;;;2.90;;
32186;SDS011;18686;53.084;8.872;2023-06-24T08:09:33;4.47;;;3.47;;
32186;SDS011;18686;53.084;8.872;2023-06-24T08:12:01;5.30;;;3.55;;
32186;SDS011;18686;53.084;8.872;2023-06-24T08:14:31;3.53;;;3.13;;
32186;SDS011;18686;53.084;8.872;2023-06-24T08:17:00;5.82;;;3.83;;
32186;SDS011;18686;53.084;8.872;2023-06-24T08:19:28;4.43;;;3.28;;
32186;SDS011;18686;53.084;8.872;2023-06-24T08:21:56;6.30;;;3.38;;
32186;SDS011;18686;53.084;8.872;2023-06-24T08:24:24;5.60;;;3.22;;
32186;SDS011;18686;53.084;8.872;2023-06-24T08:26:52;3.97;;;2.95;;
32186;SDS011;18686;53.084;8.872;2023-06-24T08:29:21;6.50;;;3.67;;
32186;SDS011;18686;53.084;8.872;2023-06-24T08:31:50;5.38;;;3.50;;
32186;SDS011;18686;53.084;8.872;2023-06-24T08:34:18;7.07;;;3.00;;
32186;SDS011;18686;53.084;8.872;2023-06-24T08:36:46;4.30;;;3.38;;
32186;SDS011;18686;53.084;8.872;2023-06-24T08:39:15;3.83;;;2.70;;
32186;SDS011;18686;53.084;8.872;2023-06-24T08:41:43;4.32;;;3.10;;
32186;SDS011;18686;53.084;8.872;2023-06-24T08:44:11;3.17;;;2.60;;
32186;SDS011;18686;53.084;8.872;2023-06-24T08:46:39;4.38;;;2.60;;
32186;SDS011;18686;53.084;8.872;2023-06-24T08:49:11;4.40;;;2.80;;
32186;SDS011;18686;53.084;8.872;2023-06-24T08:51:54;3.97;;;2.55;;
32186;SDS011;18686;53.084;8.872;2023-06-24T08:54:28;3.78;;;2.70;;
32186;SDS011;18686;53.084;8.872;2023-06-24T08:56:57;3.88;;;2.80;;
32186;SDS011;18686;53.084;8.872;2023-06-24T08:59:27;4.75;;;2.70;;
32186;SDS011;18686;53.084;8.872;2023-06-24T09:01:55;4.85;;;2.72;;
32186;SDS011;18686;53.084;8.872;2023-06-24T09:04:25;3.53;;;2.50;;
32186;SDS011;18686;53.084;8.872;2023-06-24T09:06:53;3.10;;;2.53;;
32186;SDS011;18686;53.084;8.872;2023-06-24T09:09:22;4.88;;;2.53;;
32186;SDS011;18686;53.084;8.872;2023-06-24T09:11:51;4.75;;;2.42;;
32186;SDS011;18686;53.084;8.872;2023-06-24T09:14:20;3.80;;;2.58;;
32186;SDS011;18686;53.084;8.872;2023-06-24T09:16:52;2.72;;;2.10;;
32186;SDS011;18686;53.084;8.872;2023-06-24T09:19:22;3.80;;;2.20;;
32186;SDS011;18686;53.084;8.872;2023-06-24T09:21:52;4.28;;;2.58;;
32186;SDS011;18686;53.084;8.872;2023-06-24T09:24:20;3.03;;;2.10;;
32186;SDS011;18686;53.084;8.872;2023-06-24T09:26:48;6.50;;;2.78;;
32186;SDS011;18686;53.084;8.872;2023-06-24T09:29:17;4.80;;;2.47;;
32186;SDS011;18686;53.084;8.872;2023-06-24T09:31:45;4.35;;;2.25;;
32186;SDS011;18686;53.084;8.872;2023-06-24T09:34:15;4.72;;;2.83;;
32186;SDS011;18686;53.084;8.872;2023-06-24T09:36:44;3.95;;;2.42;;
32186;SDS011;18686;53.084;8.872;2023-06-24T09:39:14;4.32;;;2.40;;
32186;SDS011;18686;53.084;8.872;2023-06-24T09:41:55;3.75;;;2.45;;
32186;SDS011;18686;53.084;8.872;2023-06-24T09:44:24;3.85;;;2.42;;
32186;SDS011;18686;53.084;8.872;2023-06-24T09:46:53;3.67;;;2.13;;
32186;SDS011;18686;53.084;8.872;2023-06-24T09:49:23;2.97;;;2.20;;
32186;SDS011;18686;53.084;8.872;2023-06-24T09:57:31;2.67;;;2.30;;
32186;SDS011;18686;53.084;8.872;2023-06-24T10:00:02;2.28;;;2.08;;
32186;SDS011;18686;53.084;8.872;2023-06-24T10:02:31;2.13;;;1.80;;
32186;SDS011;18686;53.084;8.872;2023-06-24T10:05:01;4.63;;;2.72;;
32186;SDS011;18686;53.084;8.872;2023-06-24T10:07:29;5.57;;;1.80;;
32186;SDS011;18686;53.084;8.872;2023-06-24T10:10:00;3.63;;;2.00;;
32186;SDS011;18686;53.084;8.872;2023-06-24T10:12:30;2.55;;;1.73;;
32186;SDS011;18686;53.084;8.872;2023-06-24T10:14:58;2.72;;;1.83;;
32186;SDS011;18686;53.084;8.872;2023-06-24T10:17:27;3.63;;;2.33;;
32186;SDS011;18686;53.084;8.872;2023-06-24T10:19:57;4.22;;;2.08;;
32186;SDS011;18686;53.084;8.872;2023-06-24T10:22:25;3.60;;;1.52;;
32186;SDS011;18686;53.084;8.872;2023-06-24T10:24:58;2.78;;;1.85;;
32186;SDS011;18686;53.084;8.872;2023-06-24T10:27:29;2.70;;;1.80;;
32186;SDS011;18686;53.084;8.872;2023-06-24T10:30:01;3.40;;;1.90;;
32186;SDS011;18686;53.084;8.872;2023-06-24T10:32:39;2.80;;;2.03;;
32186;SDS011;18686;53.084;8.872;2023-06-24T10:35:21;1.75;;;1.38;;
32186;SDS011;18686;53.084;8.872;2023-06-24T10:37:55;4.70;;;2.05;;
32186;SDS011;18686;53.084;8.872;2023-06-24T10:40:38;2.78;;;1.75;;
32186;SDS011;18686;53.084;8.872;2023-06-24T10:43:25;2.05;;;1.58;;
32186;SDS011;18686;53.084;8.872;2023-06-24T10:45:56;2.50;;;1.35;;
32186;SDS011;18686;53.084;8.872;2023-06-24T10:48:25;2.30;;;1.50;;
32186;SDS011;18686;53.084;8.872;2023-06-24T10:50:53;2.47;;;1.63;;
32186;SDS011;18686;53.084;8.872;2023-06-24T10:53:22;3.08;;;2.20;;
32186;SDS011;18686;53.084;8.872;2023-06-24T10:55:51;2.22;;;2.00;;
32186;SDS011;18686;53.084;8.872;2023-06-24T10:58:24;1.95;;;1.70;;
32186;SDS011;18686;53.084;8.872;2023-06-24T11:00:52;2.22;;;1.85;;
32186;SDS011;18686;53.084;8.872;2023-06-24T11:03:22;2.80;;;2.05;;
32186;SDS011;18686;53.084;8.872;2023-06-24T11:05:50;2.22;;;2.00;;
32186;SDS011;18686;53.084;8.872;2023-06-24T11:08:20;2.15;;;2.00;;
32186;SDS011;18686;53.084;8.872;2023-06-24T11:10:48;2.33;;;1.70;;
32186;SDS011;18686;53.084;8.872;2023-06-24T11:13:21;2.85;;;2.40;;
32186;SDS011;18686;53.084;8.872;2023-06-24T11:15:49;2.40;;;2.20;;
32186;SDS011;18686;53.084;8.872;2023-06-24T11:18:19;2.28;;;2.13;;
32186;SDS011;18686;53.084;8.872;2023-06-24T11:20:47;2.40;;;2.10;;
32186;SDS011;18686;53.084;8.872;2023-06-24T11:23:15;2.55;;;1.98;;
32186;SDS011;18686;53.084;8.872;2023-06-24T11:25:43;1.92;;;1.83;;
32186;SDS011;18686;53.084;8.872;2023-06-24T11:28:12;5.32;;;2.00;;
32186;SDS011;18686;53.084;8.872;2023-06-24T11:30:42;2.35;;;2.15;;
32186;SDS011;18686;53.084;8.872;2023-06-24T11:33:11;3.28;;;2.50;;
32186;SDS011;18686;53.084;8.872;2023-06-24T11:35:39;3.05;;;2.10;;
32186;SDS011;18686;53.084;8.872;2023-06-24T11:38:08;2.95;;;2.65;;
32186;SDS011;18686;53.084;8.872;2023-06-24T11:40:36;5.53;;;2.30;;
32186;SDS011;18686;53.084;8.872;2023-06-24T11:43:04;3.03;;;2.28;;
32186;SDS011;18686;53.084;8.872;2023-06-24T11:45:34;2.03;;;1.73;;
32186;SDS011;18686;53.084;8.872;2023-06-24T11:48:04;2.25;;;1.92;;
32186;SDS011;18686;53.084;8.872;2023-06-24T11:50:35;2.55;;;2.10;;
32186;SDS011;18686;53.084;8.872;2023-06-24T11:53:04;2.97;;;2.25;;
32186;SDS011;18686;53.084;8.872;2023-06-24T11:55:32;4.15;;;2.17;;
32186;SDS011;18686;53.084;8.872;2023-06-24T11:58:01;2.10;;;1.63;;
32186;SDS011;18686;53.084;8.872;2023-06-24T12:00:32;2.25;;;2.00;;
32186;SDS011;18686;53.084;8.872;2023-06-24T12:03:05;2.80;;;2.13;;
32186;SDS011;18686;53.084;8.872;2023-06-24T12:05:38;4.30;;;2.08;;
32186;SDS011;18686;53.084;8.872;2023-06-24T12:08:12;2.65;;;2.10;;
32186;SDS011;18686;53.084;8.872;2023-06-24T12:10:43;2.10;;;1.90;;
32186;SDS011;18686;53.084;8.872;2023-06-24T12:13:12;2.85;;;2.10;;
32186;SDS011;18686;53.084;8.872;2023-06-24T12:15:40;2.55;;;2.05;;
32186;SDS011;18686;53.084;8.872;2023-06-24T12:18:11;5.03;;;2.15;;
32186;SDS011;18686;53.084;8.872;2023-06-24T12:20:40;5.93;;;2.22;;
32186;SDS011;18686;53.084;8.872;2023-06-24T12:23:10;3.60;;;2.45;;
32186;SDS011;18686;53.084;8.872;2023-06-24T12:25:38;2.45;;;2.25;;
32186;SDS011;18686;53.084;8.872;2023-06-24T12:28:07;3.30;;;2.38;;
32186;SDS011;18686;53.084;8.872;2023-06-24T12:30:35;2.88;;;2.40;;
32186;SDS011;18686;53.084;8.872;2023-06-24T12:33:03;4.70;;;3.13;;
32186;SDS011;18686;53.084;8.872;2023-06-24T12:35:36;2.63;;;2.42;;
32186;SDS011;18686;53.084;8.872;2023-06-24T12:38:04;2.72;;;2.30;;
32186;SDS011;18686;53.084;8.872;2023-06-24T12:40:32;3.00;;;2.28;;
32186;SDS011;18686;53.084;8.872;2023-06-24T12:43:01;3.55;;;2.40;;
32186;SDS011;18686;53.084;8.872;2023-06-24T12:45:31;2.03;;;1.80;;
32186;SDS011;18686;53.084;8.872;2023-06-24T12:47:59;2.58;;;2.22;;
32186;SDS011;18686;53.084;8.872;2023-06-24T12:50:27;2.75;;;2.30;;
32186;SDS011;18686;53.084;8.872;2023-06-24T12:52:59;2.50;;;2.30;;
32186;SDS011;18686;53.084;8.872;2023-06-24T12:55:28;2.80;;;2.38;;
32186;SDS011;18686;53.084;8.872;2023-06-24T12:57:56;3.45;;;2.22;;
32186;SDS011;18686;53.084;8.872;2023-06-24T13:00:25;2.50;;;2.30;;
32186;SDS011;18686;53.084;8.872;2023-06-24T13:02:54;2.38;;;2.17;;
32186;SDS011;18686;53.084;8.872;2023-06-24T13:05:22;2.38;;;2.17;;
32186;SDS011;18686;53.084;8.872;2023-06-24T13:07:51;3.33;;;2.35;;
32186;SDS011;18686;53.084;8.872;2023-06-24T13:10:21;3.80;;;2.67;;
32186;SDS011;18686;53.084;8.872;2023-06-24T13:12:50;4.15;;;2.13;;
32186;SDS011;18686;53.084;8.872;2023-06-24T13:15:19;2.47;;;2.28;;
32186;SDS011;18686;53.084;8.872;2023-06-24T13:17:47;3.88;;;1.90;;
32186;SDS011;18686;53.084;8.872;2023-06-24T13:20:15;2.35;;;2.15;;
32186;SDS011;18686;53.084;8.872;2023-06-24T13:22:44;4.78;;;2.60;;
32186;SDS011;18686;53.084;8.872;2023-06-24T13:25:12;3.03;;;2.42;;
32186;SDS011;18686;53.084;8.872;2023-06-24T13:27:44;2.47;;;2.28;;
32186;SDS011;18686;53.084;8.872;2023-06-24T13:30:12;3.47;;;2.20;;
32186;SDS011;18686;53.084;8.872;2023-06-24T13:32:42;3.10;;;2.17;;
32186;SDS011;18686;53.084;8.872;2023-06-24T13:35:11;2.38;;;2.17;;
32186;SDS011;18686;53.084;8.872;2023-06-24T13:37:39;3.45;;;2.90;;
32186;SDS011;18686;53.084;8.872;2023-06-24T13:40:08;3.63;;;2.50;;
32186;SDS011;18686;53.084;8.872;2023-06-24T13:42:37;2.30;;;2.10;;
32186;SDS011;18686;53.084;8.872;2023-06-24T13:45:07;3.55;;;2.38;;
32186;SDS011;18686;53.084;8.872;2023-06-24T13:47:36;2.70;;;1.90;;
32186;SDS011;18686;53.084;8.872;2023-06-24T13:50:05;2.85;;;2.38;;
32186;SDS011;18686;53.084;8.872;2023-06-24T13:52:34;2.50;;;2.30;;
32186;SDS011;18686;53.084;8.872;2023-06-24T13:55:02;3.50;;;3.20;;
32186;SDS011;18686;53.084;8.872;2023-06-24T13:57:31;3.47;;;2.60;;
32186;SDS011;18686;53.084;8.872;2023-06-24T13:59:59;3.00;;;2.58;;
32186;SDS011;18686;53.084;8.872;2023-06-24T14:02:38;4.90;;;2.60;;
32186;SDS011;18686;53.084;8.872;2023-06-24T14:05:07;3.33;;;2.40;;
32186;SDS011;18686;53.084;8.872;2023-06-24T14:07:36;3.53;;;2.25;;
32186;SDS011;18686;53.084;8.872;2023-06-24T14:10:05;3.10;;;2.10;;
32186;SDS011;18686;53.084;8.872;2023-06-24T14:12:34;4.80;;;2.60;;
32186;SDS011;18686;53.084;8.872;2023-06-24T14:15:04;3.33;;;2.47;;
32186;SDS011;18686;53.084;8.872;2023-06-24T14:17:33;2.70;;;2.30;;
32186;SDS011;18686;53.084;8.872;2023-06-24T14:20:03;3.85;;;2.90;;
32186;SDS011;18686;53.084;8.872;2023-06-24T14:22:32;2.75;;;2.30;;
32186;SDS011;18686;53.084;8.872;2023-06-24T14:25:00;2.17;;;2.08;;
32186;SDS011;18686;53.084;8.872;2023-06-24T14:27:29;3.22;;;2.42;;
32186;SDS011;18686;53.084;8.872;2023-06-24T14:29:57;5.88;;;2.40;;
32186;SDS011;18686;53.084;8.872;2023-06-24T14:32:25;2.70;;;2.38;;
32186;SDS011;18686;53.084;8.872;2023-06-24T14:34:54;4.18;;;2.50;;
32186;SDS011;18686;53.084;8.872;2023-06-24T14:37:23;2.30;;;2.10;;
32186;SDS011;18686;53.084;8.872;2023-06-24T14:39:52;4.55;;;2.42;;
32186;SDS011;18686;53.084;8.872;2023-06-24T14:42:20;4.30;;;2.90;;
32186;SDS011;18686;53.084;8.872;2023-06-24T14:44:48;4.60;;;3.20;;
32186;SDS011;18686;53.084;8.872;2023-06-24T14:47:16;4.22;;;3.90;;
32186;SDS011;18686;53.084;8.872;2023-06-24T14:49:45;5.90;;;4.50;;
32186;SDS011;18686;53.084;8.872;2023-06-24T14:52:13;4.93;;;2.83;;
32186;SDS011;18686;53.084;8.872;2023-06-24T14:54:42;3.95;;;3.35;;
32186;SDS011;18686;53.084;8.872;2023-06-24T14:57:10;3.20;;;2.60;;
32186;SDS011;18686;53.084;8.872;2023-06-24T14:59:39;3.70;;;2.70;;
32186;SDS011;18686;53.084;8.872;2023-06-24T15:02:07;4.38;;;3.08;;
32186;SDS011;18686;53.084;8.872;2023-06-24T15:04:35;5.13;;;3.20;;
32186;SDS011;18686;53.084;8.872;2023-06-24T15:07:05;3.17;;;2.88;;
32186;SDS011;18686;53.084;8.872;2023-06-24T15:09:33;7.00;;;3.00;;